Time;durP1;ratioP1;P1;durP2;ratioP2;P2;SDS_P1;SDS_P2;PMS_P1;PMS_P2;Temp;Humidity;BMP_temperature;BMP_pressure;BME280_temperature;BME280_humidity;BME280_pressure;Samples;Min_cycle;Max_cycle;Signal;HPM_P1;HPM_P2
2024/01/23 00:00:39;;;;;;;3.53;2.00;;;5.80;99.90;;;;;;5045170;28;20754;-63
2024/01/23 00:03:06;;;;;;;4.82;2.00;;;5.70;99.90;;;;;;5051600;28;20202;-63
2024/01/23 00:05:33;;;;;;;6.07;2.28;;;5.70;99.90;;;;;;5040632;28;20776;-63
2024/01/23 00:08:00;;;;;;;3.55;1.55;;;5.70;99.90;;;;;;5038402;28;20219;-63
2024/01/23 00:10:26;;;;;;;11.07;2.58;;;5.70;99.90;;;;;;5050119;28;20700;-63
2024/01/23 00:12:54;;;;;;;3.95;2.05;;;5.60;99.90;;;;;;5051951;28;20203;-63
2024/01/23 00:15:21;;;;;;;3.80;1.55;;;5.60;99.90;;;;;;5053420;28;20237;-63
2024/01/23 00:17:48;;;;;;;8.05;2.47;;;5.70;99.90;;;;;;5053512;28;20732;-63
2024/01/23 00:20:15;;;;;;;6.57;2.35;;;5.60;99.90;;;;;;5049786;28;20790;-63
2024/01/23 00:22:42;;;;;;;6.40;2.15;;;5.60;99.90;;;;;;5053639;28;20209;-63
2024/01/23 00:25:09;;;;;;;7.75;2.50;;;5.60;99.90;;;;;;5053250;28;20229;-63
2024/01/23 00:27:36;;;;;;;4.80;1.63;;;5.60;99.90;;;;;;5053219;28;20768;-63
2024/01/23 00:30:05;;;;;;;7.13;2.20;;;5.60;99.90;;;;;;5053097;28;20222;-63
2024/01/23 00:32:31;;;;;;;2.28;1.80;;;5.60;99.90;;;;;;5053282;28;20206;-63
2024/01/23 00:34:58;;;;;;;4.18;2.00;;;5.60;99.90;;;;;;5053324;28;20232;-63
2024/01/23 00:37:26;;;;;;;8.55;2.40;;;5.60;99.90;;;;;;5052036;28;20668;-63
2024/01/23 00:39:54;;;;;;;3.22;2.70;;;5.60;99.90;;;;;;5053093;28;20207;-64
2024/01/23 00:42:21;;;;;;;2.22;2.00;;;5.60;99.90;;;;;;5053173;28;20210;-63
2024/01/23 00:44:48;;;;;;;3.90;2.60;;;5.60;99.90;;;;;;5052918;28;20257;-63
2024/01/23 00:47:16;;;;;;;3.85;2.42;;;5.60;99.90;;;;;;5053343;28;20202;-63
2024/01/23 00:49:43;;;;;;;5.18;1.48;;;5.60;99.90;;;;;;5053149;28;20727;-63
2024/01/23 00:52:10;;;;;;;3.92;2.40;;;5.60;99.90;;;;;;5052977;28;20210;-63
2024/01/23 00:54:37;;;;;;;5.97;2.63;;;5.50;99.90;;;;;;5052651;28;20732;-63
2024/01/23 00:57:05;;;;;;;6.50;2.67;;;5.60;99.90;;;;;;5052885;28;20202;-63
2024/01/23 00:59:32;;;;;;;3.63;2.97;;;5.60;99.90;;;;;;5053065;28;20301;-63
2024/01/23 01:01:59;;;;;;;2.28;2.00;;;5.60;99.90;;;;;;5052852;28;20213;-63
2024/01/23 01:04:27;;;;;;;10.20;3.05;;;5.60;99.90;;;;;;5052888;28;20222;-63
2024/01/23 01:06:54;;;;;;;3.72;2.55;;;5.50;99.90;;;;;;5052850;28;20206;-63
2024/01/23 01:09:22;;;;;;;5.75;3.05;;;5.50;99.90;;;;;;5051975;28;20302;-63
2024/01/23 01:11:49;;;;;;;3.42;3.13;;;5.60;99.90;;;;;;5050993;28;20293;-63
2024/01/23 01:14:15;;;;;;;6.15;2.35;;;5.60;99.90;;;;;;5052844;28;20217;-63
2024/01/23 01:16:43;;;;;;;6.80;2.83;;;5.60;99.90;;;;;;5051349;28;20660;-63
2024/01/23 01:19:10;;;;;;;4.40;2.58;;;5.70;99.90;;;;;;5043870;28;20289;-63
2024/01/23 01:21:38;;;;;;;6.47;2.70;;;5.70;99.90;;;;;;5046059;28;20202;-63
2024/01/23 01:24:05;;;;;;;5.78;3.10;;;5.70;99.90;;;;;;5042988;28;20217;-62
2024/01/23 01:26:32;;;;;;;4.05;2.20;;;5.80;99.90;;;;;;5038740;28;20219;-63
2024/01/23 01:28:58;;;;;;;6.03;2.92;;;5.80;99.90;;;;;;5050430;28;20583;-63
2024/01/23 01:31:25;;;;;;;5.30;2.72;;;5.90;99.90;;;;;;5052252;28;20230;-63
2024/01/23 01:33:52;;;;;;;6.95;2.95;;;5.90;99.90;;;;;;5052383;28;20202;-63
2024/01/23 01:36:19;;;;;;;4.05;2.50;;;5.90;99.90;;;;;;5052122;28;20309;-63
2024/01/23 01:38:47;;;;;;;4.25;2.53;;;5.90;99.90;;;;;;5052049;28;20217;-63
2024/01/23 01:41:14;;;;;;;4.47;2.53;;;6.00;99.90;;;;;;5052109;28;20202;-63
2024/01/23 01:43:42;;;;;;;3.53;2.78;;;5.90;99.90;;;;;;5052104;28;20220;-63
2024/01/23 01:46:19;;;;;;;4.50;2.42;;;5.90;99.90;;;;;;5051910;28;20222;-63
2024/01/23 01:48:47;;;;;;;9.93;3.42;;;5.90;99.90;;;;;;5051992;28;20210;-63
2024/01/23 01:51:15;;;;;;;5.40;2.90;;;6.00;99.90;;;;;;5051597;28;20545;-63
2024/01/23 01:53:43;;;;;;;4.63;2.47;;;6.00;99.90;;;;;;5051798;28;20302;-63
2024/01/23 01:56:12;;;;;;;5.25;2.42;;;6.00;99.90;;;;;;5051882;28;20830;-63
2024/01/23 01:58:40;;;;;;;3.50;2.70;;;6.00;99.90;;;;;;5051894;28;20217;-63
2024/01/23 02:01:07;;;;;;;3.95;1.90;;;6.00;99.90;;;;;;5051576;28;20213;-63
2024/01/23 02:03:34;;;;;;;9.98;2.15;;;6.00;99.90;;;;;;5051755;28;20206;-63
2024/01/23 02:06:04;;;;;;;6.28;2.45;;;6.10;99.90;;;;;;5051150;28;20822;-62
2024/01/23 02:08:31;;;;;;;4.43;2.63;;;6.10;99.90;;;;;;5051713;28;20292;-63
2024/01/23 02:10:58;;;;;;;2.47;2.10;;;6.20;99.90;;;;;;5051540;28;20230;-63
2024/01/23 02:13:26;;;;;;;5.93;1.95;;;6.20;99.90;;;;;;5051640;28;20213;-62
2024/01/23 02:15:54;;;;;;;5.03;3.17;;;6.10;99.90;;;;;;5051534;28;20230;-63
2024/01/23 02:18:21;;;;;;;8.40;2.67;;;6.10;99.90;;;;;;5051408;28;20654;-63
2024/01/23 02:20:48;;;;;;;3.22;1.63;;;6.10;99.90;;;;;;5051658;28;20232;-63
2024/01/23 02:23:15;;;;;;;9.85;2.40;;;6.10;99.90;;;;;;5051233;28;20207;-63
2024/01/23 02:25:45;;;;;;;7.45;2.72;;;6.10;99.90;;;;;;5051492;28;20248;-63
2024/01/23 02:28:15;;;;;;;3.90;2.88;;;6.10;99.90;;;;;;5051389;28;20308;-63
2024/01/23 02:30:42;;;;;;;5.05;1.88;;;6.10;99.90;;;;;;5051273;28;20234;-63
2024/01/23 02:33:09;;;;;;;2.00;1.90;;;6.10;99.90;;;;;;5051481;28;20282;-63
2024/01/23 02:35:36;;;;;;;4.97;1.90;;;6.10;99.90;;;;;;5051591;28;20596;-63
2024/01/23 02:38:03;;;;;;;4.68;2.00;;;6.10;99.90;;;;;;5051512;28;20210;-63
2024/01/23 02:40:30;;;;;;;4.20;2.00;;;6.10;99.90;;;;;;5051121;28;20298;-63
2024/01/23 02:42:58;;;;;;;1.90;1.70;;;6.10;99.90;;;;;;5051287;28;20308;-63
2024/01/23 02:45:25;;;;;;;4.88;2.25;;;6.10;99.90;;;;;;5051057;28;20226;-63
2024/01/23 02:47:52;;;;;;;5.00;1.77;;;6.10;99.90;;;;;;5051209;28;20226;-63
2024/01/23 02:50:19;;;;;;;3.17;1.75;;;6.10;99.90;;;;;;5051207;28;20222;-63
2024/01/23 02:52:45;;;;;;;3.63;1.80;;;6.10;99.90;;;;;;5051027;28;20285;-63
2024/01/23 02:55:12;;;;;;;3.85;2.20;;;6.10;99.90;;;;;;5051127;28;20234;-63
2024/01/23 02:57:39;;;;;;;4.95;3.03;;;6.10;99.90;;;;;;5051180;28;20220;-63
2024/01/23 03:00:09;;;;;;;10.88;2.08;;;6.10;99.90;;;;;;5050911;28;20206;-63
2024/01/23 03:02:36;;;;;;;14.38;2.03;;;6.10;99.90;;;;;;5050649;28;20206;-63
2024/01/23 03:05:03;;;;;;;3.75;1.85;;;6.00;99.90;;;;;;5051018;28;20226;-63
2024/01/23 03:07:29;;;;;;;3.03;2.67;;;6.00;99.90;;;;;;5051086;28;20206;-63
2024/01/23 03:09:56;;;;;;;9.38;3.15;;;5.90;99.90;;;;;;5050675;28;20212;-63
2024/01/23 03:12:25;;;;;;;4.28;2.05;;;5.90;99.90;;;;;;5050942;28;20244;-63
2024/01/23 03:14:52;;;;;;;4.45;2.13;;;5.90;99.90;;;;;;5050736;28;20234;-63
2024/01/23 03:17:20;;;;;;;11.65;2.33;;;5.90;99.90;;;;;;5050694;28;20220;-63
2024/01/23 03:19:47;;;;;;;11.43;1.70;;;5.80;99.90;;;;;;5051133;28;20206;-63
2024/01/23 03:22:14;;;;;;;9.82;1.80;;;5.80;99.90;;;;;;5050699;28;20199;-63
2024/01/23 03:24:41;;;;;;;5.80;2.50;;;5.80;99.90;;;;;;5050990;28;20226;-63
2024/01/23 03:27:08;;;;;;;5.38;2.25;;;5.80;99.90;;;;;;5050785;28;20698;-63
2024/01/23 03:29:41;;;;;;;4.10;2.55;;;5.80;99.90;;;;;;5051137;28;20317;-63
2024/01/23 03:32:08;;;;;;;2.85;1.73;;;5.80;99.90;;;;;;5050887;28;20230;-63
2024/01/23 03:34:37;;;;;;;9.20;2.00;;;5.80;99.90;;;;;;5051838;28;20230;-63
2024/01/23 03:37:04;;;;;;;6.20;2.40;;;5.80;99.90;;;;;;5054549;28;20206;-63
2024/01/23 03:39:31;;;;;;;5.03;1.98;;;5.70;99.90;;;;;;5054360;28;20212;-63
2024/01/23 03:41:58;;;;;;;5.07;2.03;;;5.80;99.90;;;;;;5054194;28;20212;-63
2024/01/23 03:44:26;;;;;;;4.65;2.17;;;5.80;99.90;;;;;;5054151;28;20232;-63
2024/01/23 03:46:53;;;;;;;3.10;1.42;;;5.70;99.90;;;;;;5054349;28;20294;-63
2024/01/23 03:49:20;;;;;;;5.82;1.77;;;5.80;99.90;;;;;;5054321;28;20210;-63
2024/01/23 03:51:49;;;;;;;5.05;2.97;;;5.80;99.90;;;;;;5053989;28;20219;-63
2024/01/23 03:54:15;;;;;;;7.35;1.90;;;5.80;99.90;;;;;;5054095;28;20228;-63
2024/01/23 03:56:42;;;;;;;10.68;3.28;;;5.80;99.90;;;;;;5054366;28;20680;-63
2024/01/23 03:59:09;;;;;;;3.85;1.95;;;5.80;99.90;;;;;;5054234;28;20206;-63
2024/01/23 04:01:36;;;;;;;3.95;2.70;;;5.80;99.90;;;;;;5053040;28;20672;-63
2024/01/23 04:04:03;;;;;;;3.67;1.27;;;5.90;99.90;;;;;;5053918;28;20301;-63
2024/01/23 04:06:30;;;;;;;4.85;1.98;;;5.90;99.90;;;;;;5054099;28;20293;-63
2024/01/23 04:09:00;;;;;;;1.35;1.25;;;6.00;99.90;;;;;;5053999;28;20583;-63
2024/01/23 04:11:26;;;;;;;3.50;1.70;;;5.90;99.90;;;;;;5053517;28;20327;-63
2024/01/23 04:13:53;;;;;;;7.30;2.90;;;6.00;99.90;;;;;;5053844;28;20207;-63
2024/01/23 04:16:20;;;;;;;3.55;1.92;;;6.00;99.90;;;;;;5053596;28;20281;-63
2024/01/23 04:18:47;;;;;;;5.32;1.88;;;6.00;99.90;;;;;;5053832;28;20213;-63
2024/01/23 04:21:16;;;;;;;2.58;2.08;;;6.00;99.90;;;;;;5053655;28;20687;-63
2024/01/23 04:23:42;;;;;;;1.90;1.45;;;6.10;99.90;;;;;;5053753;28;20219;-63
2024/01/23 04:26:11;;;;;;;8.07;2.03;;;6.10;99.90;;;;;;5053395;28;20313;-63
2024/01/23 04:28:38;;;;;;;6.95;1.95;;;6.10;99.90;;;;;;5053446;28;20289;-63
2024/01/23 04:31:05;;;;;;;5.35;2.08;;;6.00;99.90;;;;;;5053188;28;20705;-63
2024/01/23 04:33:32;;;;;;;3.47;1.52;;;6.00;99.90;;;;;;5053658;28;20302;-63
2024/01/23 04:35:59;;;;;;;5.75;1.90;;;6.00;99.90;;;;;;5053185;28;20226;-63
2024/01/23 04:38:26;;;;;;;7.72;2.25;;;6.00;99.90;;;;;;5053240;28;20207;-63
2024/01/23 04:40:52;;;;;;;4.75;1.50;;;5.90;99.90;;;;;;5053166;28;20216;-63
2024/01/23 04:43:21;;;;;;;1.45;1.35;;;5.90;99.90;;;;;;5053175;28;20584;-63
2024/01/23 04:45:48;;;;;;;5.13;1.95;;;5.90;99.90;;;;;;5053309;28;20225;-63
2024/01/23 04:48:14;;;;;;;4.97;1.67;;;5.90;99.90;;;;;;5028278;23;20236;-64
2024/01/23 04:50:41;;;;;;;3.40;1.45;;;5.80;99.90;;;;;;4993082;28;20207;-63
2024/01/23 04:53:08;;;;;;;3.47;1.40;;;5.80;99.90;;;;;;4994127;28;20204;-64
2024/01/23 04:55:35;;;;;;;3.55;1.40;;;5.80;99.90;;;;;;4994027;28;20214;-64
2024/01/23 04:58:02;;;;;;;3.47;1.20;;;5.70;99.90;;;;;;5008344;28;20230;-64
2024/01/23 05:00:30;;;;;;;1.65;1.45;;;5.70;99.90;;;;;;5012073;28;20207;-64
2024/01/23 05:02:57;;;;;;;4.20;1.30;;;5.70;99.90;;;;;;5013185;28;20684;-64
2024/01/23 05:05:25;;;;;;;1.80;1.30;;;5.70;99.90;;;;;;5013292;28;20214;-63
2024/01/23 05:07:51;;;;;;;3.60;1.35;;;5.60;99.90;;;;;;5013155;28;20228;-64
2024/01/23 05:10:18;;;;;;;1.40;1.05;;;5.70;99.90;;;;;;5012986;28;20203;-63
2024/01/23 05:12:45;;;;;;;2.83;1.65;;;5.60;99.90;;;;;;5014368;28;20238;-63
2024/01/23 05:15:12;;;;;;;4.63;1.80;;;5.60;99.90;;;;;;5013550;28;20204;-62
2024/01/23 05:17:40;;;;;;;6.03;1.30;;;5.60;99.90;;;;;;5012769;28;20314;-63
2024/01/23 05:20:08;;;;;;;1.88;0.90;;;5.60;99.90;;;;;;5012582;28;20334;-63
2024/01/23 05:22:35;;;;;;;2.15;1.10;;;5.50;99.90;;;;;;5013078;28;20204;-63
2024/01/23 05:25:03;;;;;;;2.65;1.10;;;5.50;99.90;;;;;;5012930;28;20214;-64
2024/01/23 05:27:30;;;;;;;1.85;1.10;;;5.50;99.90;;;;;;5012868;28;20318;-62
2024/01/23 05:29:57;;;;;;;1.15;0.70;;;5.50;99.90;;;;;;5012507;28;20303;-64
2024/01/23 05:32:24;;;;;;;2.25;1.13;;;5.50;99.90;;;;;;5012587;28;20311;-62
2024/01/23 05:34:52;;;;;;;4.10;1.40;;;5.40;99.90;;;;;;5012568;28;20219;-62
2024/01/23 05:37:19;;;;;;;2.55;1.38;;;5.40;99.90;;;;;;5012500;28;20314;-62
2024/01/23 05:39:46;;;;;;;1.17;0.90;;;5.40;99.90;;;;;;5012471;28;20212;-63
2024/01/23 05:42:13;;;;;;;2.58;1.42;;;5.40;99.90;;;;;;5012405;28;20210;-63
2024/01/23 05:44:40;;;;;;;9.30;1.38;;;5.40;99.90;;;;;;5012526;28;20733;-63
2024/01/23 05:47:07;;;;;;;3.75;1.10;;;5.50;99.90;;;;;;5012192;28;20236;-63
2024/01/23 05:49:34;;;;;;;3.33;1.38;;;5.50;99.90;;;;;;5012500;28;20203;-63
2024/01/23 05:52:02;;;;;;;2.22;1.10;;;5.60;99.90;;;;;;5012328;28;20231;-64
2024/01/23 05:54:29;;;;;;;6.95;1.67;;;5.60;99.90;;;;;;5012406;28;20290;-63
2024/01/23 05:56:56;;;;;;;1.25;1.02;;;5.60;99.90;;;;;;5016398;28;20322;-63
2024/01/23 05:59:22;;;;;;;2.65;1.40;;;5.60;99.90;;;;;;5011916;28;20295;-63
2024/01/23 06:01:49;;;;;;;1.95;1.50;;;5.60;99.90;;;;;;5012003;28;20208;-63
2024/01/23 06:04:16;;;;;;;2.25;1.80;;;5.60;99.90;;;;;;5012333;28;20318;-62
2024/01/23 06:06:43;;;;;;;7.35;3.28;;;5.70;99.90;;;;;;5011991;28;20734;-63
2024/01/23 06:09:12;;;;;;;2.65;1.70;;;5.80;99.90;;;;;;5012017;28;20298;-63
2024/01/23 06:11:40;;;;;;;6.45;1.85;;;5.80;99.90;;;;;;5011888;28;20231;-62
2024/01/23 06:14:06;;;;;;;2.53;1.60;;;5.70;99.90;;;;;;5011892;28;20565;-62
2024/01/23 06:16:33;;;;;;;2.30;1.52;;;5.80;99.90;;;;;;5012080;28;20210;-63
2024/01/23 06:19:00;;;;;;;4.97;2.35;;;5.80;99.90;;;;;;5011935;28;20774;-63
2024/01/23 06:21:27;;;;;;;5.45;1.90;;;5.70;99.90;;;;;;5011647;28;20298;-62
2024/01/23 06:23:54;;;;;;;3.15;2.00;;;5.70;99.90;;;;;;5011934;28;20211;-63
2024/01/23 06:26:22;;;;;;;4.95;1.73;;;5.70;99.90;;;;;;5011750;28;20728;-63
2024/01/23 06:28:49;;;;;;;4.75;2.35;;;5.80;99.90;;;;;;5011730;28;20218;-62
2024/01/23 06:31:16;;;;;;;3.90;2.05;;;5.70;99.90;;;;;;5011557;28;20298;-62
2024/01/23 06:33:43;;;;;;;2.90;1.95;;;5.70;99.90;;;;;;5011804;28;20211;-64
2024/01/23 06:36:10;;;;;;;3.95;2.20;;;5.70;99.90;;;;;;5011813;28;20208;-62
2024/01/23 06:38:36;;;;;;;3.55;2.05;;;5.60;99.90;;;;;;5011612;28;20262;-63
2024/01/23 06:41:04;;;;;;;4.25;2.50;;;5.60;99.90;;;;;;5011180;28;20294;-63
2024/01/23 06:43:32;;;;;;;3.00;2.10;;;5.60;99.90;;;;;;5011736;28;20266;-63
2024/01/23 06:46:00;;;;;;;6.25;3.13;;;5.50;99.90;;;;;;5011796;28;20214;-63
2024/01/23 06:48:27;;;;;;;3.90;2.28;;;5.50;99.90;;;;;;5011365;28;20267;-62
2024/01/23 06:50:54;;;;;;;8.25;2.75;;;5.40;99.90;;;;;;5011550;28;20208;-63
2024/01/23 06:53:21;;;;;;;3.42;2.42;;;5.40;99.90;;;;;;5013475;28;20310;-63
2024/01/23 06:55:49;;;;;;;8.35;3.40;;;5.30;99.90;;;;;;5011278;28;20688;-64
2024/01/23 06:58:16;;;;;;;6.63;3.20;;;5.30;99.90;;;;;;5011672;28;20606;-62
2024/01/23 07:00:44;;;;;;;4.20;2.65;;;5.30;99.90;;;;;;5011080;28;20310;-64
2024/01/23 07:03:11;;;;;;;5.72;2.42;;;5.20;99.90;;;;;;5011684;28;20238;-64
2024/01/23 07:05:38;;;;;;;4.95;2.53;;;5.20;99.90;;;;;;5011467;28;20212;-64
2024/01/23 07:08:05;;;;;;;6.93;2.75;;;5.20;99.90;;;;;;5011359;28;20601;-63
2024/01/23 07:10:32;;;;;;;7.38;2.80;;;5.10;99.90;;;;;;5014202;28;20586;-63
2024/01/23 07:12:59;;;;;;;3.75;2.63;;;5.10;99.90;;;;;;5015362;28;20232;-62
2024/01/23 07:15:25;;;;;;;3.47;2.80;;;5.10;99.90;;;;;;5015292;28;20233;-64
2024/01/23 07:17:54;;;;;;;6.35;2.30;;;5.00;99.90;;;;;;5015093;28;20672;-62
2024/01/23 07:20:21;;;;;;;4.28;2.70;;;5.00;99.90;;;;;;5014967;28;20218;-63
2024/01/23 07:22:48;;;;;;;9.30;2.97;;;5.00;99.90;;;;;;5016721;28;20199;-63
2024/01/23 07:25:15;;;;;;;2.40;1.70;;;5.00;99.90;;;;;;5019770;28;20299;-63
2024/01/23 07:27:41;;;;;;;8.65;4.07;;;5.00;99.90;;;;;;5021663;28;20313;-63
2024/01/23 07:30:09;;;;;;;16.42;3.72;;;5.00;99.90;;;;;;5017637;28;20692;-63
2024/01/23 07:32:35;;;;;;;7.97;2.65;;;5.00;99.90;;;;;;5021562;28;20230;-63
2024/01/23 07:35:05;;;;;;;8.52;2.85;;;4.90;99.90;;;;;;5016996;28;20203;-64
2024/01/23 07:37:31;;;;;;;4.90;2.30;;;4.90;99.90;;;;;;5014710;28;20314;-63
2024/01/23 07:39:59;;;;;;;3.58;2.45;;;4.90;99.90;;;;;;5014662;28;20238;-63
2024/01/23 07:42:26;;;;;;;10.63;4.47;;;4.90;99.90;;;;;;5014937;28;20207;-64
2024/01/23 07:44:53;;;;;;;9.07;2.88;;;4.90;99.90;;;;;;5014758;28;20230;-63
2024/01/23 07:47:19;;;;;;;4.22;1.88;;;4.90;99.90;;;;;;5014436;28;20240;-63
2024/01/23 07:49:46;;;;;;;5.95;2.75;;;5.00;99.90;;;;;;5014435;28;20298;-63
2024/01/23 07:52:19;;;;;;;3.53;2.25;;;5.00;99.90;;;;;;5014165;28;20231;-63
2024/01/23 07:54:46;;;;;;;9.35;3.88;;;5.00;99.90;;;;;;5014705;28;20249;-64
2024/01/23 07:57:13;;;;;;;8.32;3.30;;;5.10;99.90;;;;;;5014465;28;20435;-63
2024/01/23 07:59:40;;;;;;;3.35;3.05;;;5.20;99.90;;;;;;5014302;28;20563;-63
2024/01/23 08:02:07;;;;;;;11.48;4.00;;;5.20;99.90;;;;;;5014133;28;20211;-63
2024/01/23 08:04:34;;;;;;;5.65;2.75;;;5.30;99.90;;;;;;5014182;28;20212;-64
2024/01/23 08:07:00;;;;;;;4.93;2.88;;;5.40;99.90;;;;;;5013893;28;20230;-63
2024/01/23 08:09:29;;;;;;;6.20;3.90;;;5.40;99.90;;;;;;5013491;28;20287;-64
2024/01/23 08:11:55;;;;;;;10.85;2.70;;;5.50;99.90;;;;;;5013693;28;20227;-62
2024/01/23 08:14:22;;;;;;;9.20;3.20;;;5.50;99.90;;;;;;5014214;28;20211;-64
2024/01/23 08:16:49;;;;;;;4.75;3.30;;;5.60;99.90;;;;;;5013894;28;20318;-63
2024/01/23 08:19:16;;;;;;;4.15;2.28;;;5.60;99.90;;;;;;5013831;28;20303;-63
2024/01/23 08:21:43;;;;;;;7.43;3.58;;;5.70;99.90;;;;;;5004742;28;20725;-63
2024/01/23 08:24:10;;;;;;;10.60;3.35;;;5.70;99.90;;;;;;5009623;28;20291;-62
2024/01/23 08:26:38;;;;;;;7.68;3.60;;;5.80;99.90;;;;;;4997624;28;20207;-63
2024/01/23 08:29:05;;;;;;;20.73;4.70;;;5.90;99.90;;;;;;5006534;28;20207;-63
2024/01/23 08:31:31;;;;;;;10.50;3.97;;;5.90;99.90;;;;;;5016252;28;20213;-63
2024/01/23 08:33:58;;;;;;;5.70;3.72;;;5.90;99.90;;;;;;5017391;28;20322;-63
2024/01/23 08:36:25;;;;;;;5.88;2.97;;;6.00;99.90;;;;;;5010644;28;20642;-63
2024/01/23 08:38:52;;;;;;;4.50;2.20;;;6.10;99.90;;;;;;5011005;28;20647;-63
2024/01/23 08:41:19;;;;;;;7.03;2.92;;;6.10;99.90;;;;;;5011898;28;20659;-63
2024/01/23 08:43:47;;;;;;;6.72;2.55;;;6.10;99.90;;;;;;5013404;28;20203;-63
2024/01/23 08:46:14;;;;;;;8.90;2.63;;;6.20;99.90;;;;;;5012833;28;20211;-63
2024/01/23 08:48:41;;;;;;;13.93;3.83;;;6.20;99.90;;;;;;5012574;28;20239;-63
2024/01/23 08:51:08;;;;;;;10.13;3.47;;;6.20;99.90;;;;;;5006964;28;20289;-63
2024/01/23 08:53:35;;;;;;;7.35;3.10;;;6.20;99.90;;;;;;5005797;28;20729;-63
2024/01/23 08:56:01;;;;;;;5.30;2.38;;;6.30;99.90;;;;;;5006659;28;20675;-63
2024/01/23 08:58:28;;;;;;;7.28;2.70;;;6.30;99.90;;;;;;5016654;28;20220;-64
2024/01/23 09:00:57;;;;;;;11.25;3.35;;;6.30;99.90;;;;;;5003071;28;20775;-63
2024/01/23 09:03:24;;;;;;;9.98;3.20;;;6.30;99.90;;;;;;5010833;28;20279;-63
2024/01/23 09:05:51;;;;;;;6.30;2.45;;;6.20;99.90;;;;;;5007865;28;20214;-63
2024/01/23 09:08:18;;;;;;;10.02;2.78;;;6.20;99.90;;;;;;5009485;28;20231;-62
2024/01/23 09:10:45;;;;;;;9.57;3.13;;;6.20;99.90;;;;;;5005011;28;20199;-63
2024/01/23 09:13:12;;;;;;;6.70;2.97;;;6.20;99.90;;;;;;5011039;28;20717;-63
2024/01/23 09:15:39;;;;;;;4.00;2.83;;;6.10;99.90;;;;;;5011719;28;20203;-63
2024/01/23 09:18:07;;;;;;;5.80;2.50;;;6.20;99.90;;;;;;5014105;28;20314;-64
2024/01/23 09:20:34;;;;;;;5.45;3.28;;;6.10;99.90;;;;;;5006928;28;20298;-62
2024/01/23 09:23:01;;;;;;;6.60;3.70;;;6.20;99.90;;;;;;5010994;28;20282;-63
2024/01/23 09:25:27;;;;;;;11.15;3.28;;;6.20;99.90;;;;;;5015476;28;20214;-63
2024/01/23 09:27:55;;;;;;;5.20;3.78;;;6.20;99.90;;;;;;5018361;28;20239;-62
2024/01/23 09:30:22;;;;;;;13.75;2.83;;;6.20;99.90;;;;;;5011208;28;20274;-63
2024/01/23 09:32:49;;;;;;;13.00;5.70;;;6.20;99.90;;;;;;5011075;28;20216;-63
2024/01/23 09:35:17;;;;;;;6.53;2.90;;;6.30;99.90;;;;;;5017659;28;20294;-64
2024/01/23 09:37:44;;;;;;;4.15;3.20;;;6.40;99.90;;;;;;5023430;28;20230;-63
2024/01/23 09:40:12;;;;;;;7.90;4.32;;;6.40;99.90;;;;;;5021009;28;20207;-63
2024/01/23 09:42:39;;;;;;;7.50;4.28;;;6.40;99.90;;;;;;5006176;28;20279;-62
2024/01/23 09:45:15;;;;;;;7.38;4.95;;;6.50;99.90;;;;;;5017694;28;20206;-62
2024/01/23 09:47:42;;;;;;;7.22;3.05;;;6.50;99.90;;;;;;5011457;28;20314;-64
2024/01/23 09:50:12;;;;;;;7.88;2.53;;;6.60;99.90;;;;;;5011917;28;20294;-64
2024/01/23 09:52:43;;;;;;;4.18;2.50;;;6.60;99.90;;;;;;5011224;28;20224;-63
2024/01/23 09:55:11;;;;;;;10.13;2.90;;;6.70;99.90;;;;;;5012205;28;20215;-62
2024/01/23 09:57:40;;;;;;;7.35;3.10;;;6.70;99.90;;;;;;5010784;28;20232;-61
2024/01/23 10:00:11;;;;;;;5.40;2.50;;;6.70;99.90;;;;;;4997385;28;20667;-62
2024/01/23 10:02:39;;;;;;;4.97;2.85;;;6.80;99.90;;;;;;5011310;28;20207;-63
2024/01/23 10:05:08;;;;;;;6.38;3.08;;;6.90;99.90;;;;;;5005670;28;20215;-63
2024/01/23 10:07:36;;;;;;;4.40;2.70;;;7.00;99.90;;;;;;5009172;28;20996;-63
2024/01/23 10:10:13;;;;;;;6.53;3.45;;;7.00;99.90;;;;;;5011461;28;20337;-62
2024/01/23 10:12:40;;;;;;;9.38;3.15;;;7.10;99.90;;;;;;5005624;28;20234;-62
2024/01/23 10:15:10;;;;;;;5.07;3.10;;;7.10;99.90;;;;;;4998345;28;20210;-63
2024/01/23 10:17:37;;;;;;;3.83;2.70;;;7.20;99.90;;;;;;4991849;28;20225;-62
2024/01/23 10:20:05;;;;;;;11.82;3.92;;;7.20;99.90;;;;;;5003087;28;20208;-62
2024/01/23 10:22:33;;;;;;;7.28;2.70;;;7.20;99.90;;;;;;5002323;28;20299;-64
2024/01/23 10:25:00;;;;;;;4.20;2.55;;;7.40;99.90;;;;;;4999526;28;20291;-62
2024/01/23 10:27:30;;;;;;;7.88;2.97;;;7.40;99.90;;;;;;5003132;28;20782;-63
2024/01/23 10:29:57;;;;;;;3.75;2.55;;;7.40;99.90;;;;;;5016965;28;20290;-63
2024/01/23 10:32:24;;;;;;;8.77;2.78;;;7.40;99.90;;;;;;5003982;28;20211;-63
2024/01/23 10:34:53;;;;;;;10.77;3.15;;;7.50;99.90;;;;;;5015827;28;20230;-63
2024/01/23 10:37:20;;;;;;;4.03;2.15;;;7.50;99.90;;;;;;5021890;28;20612;-63
2024/01/23 10:39:48;;;;;;;3.60;2.40;;;7.50;99.90;;;;;;5025516;28;20569;-63
2024/01/23 10:42:16;;;;;;;5.75;2.78;;;7.50;99.90;;;;;;5002264;28;20596;-63
2024/01/23 10:44:46;;;;;;;4.80;3.00;;;7.40;99.90;;;;;;5019959;28;20215;-61
2024/01/23 10:47:15;;;;;;;4.32;3.13;;;7.50;99.90;;;;;;5012296;28;20261;-63
2024/01/23 10:49:42;;;;;;;7.43;2.60;;;7.50;99.90;;;;;;5054345;22;20237;-63
2024/01/23 10:52:10;;;;;;;5.05;2.28;;;7.60;99.90;;;;;;5023250;28;20616;-63
2024/01/23 10:54:44;;;;;;;9.88;2.53;;;7.70;99.90;;;;;;5029607;28;20229;-63
2024/01/23 10:57:16;;;;;;;11.02;2.55;;;7.70;99.90;;;;;;5034226;28;20215;-63
2024/01/23 10:59:48;;;;;;;5.25;2.60;;;7.70;99.90;;;;;;5024549;28;20785;-63
2024/01/23 11:02:25;;;;;;;13.35;3.50;;;7.70;99.90;;;;;;5014428;28;20218;-63
2024/01/23 11:04:53;;;;;;;8.52;2.78;;;7.60;99.90;;;;;;5015739;28;20284;-64
2024/01/23 11:07:25;;;;;;;6.35;2.40;;;7.60;99.90;;;;;;5015447;28;20299;-63
2024/01/23 11:10:03;;;;;;;6.82;2.58;;;7.70;99.90;;;;;;5009426;28;20227;-63
2024/01/23 11:12:38;;;;;;;6.93;3.65;;;7.80;99.90;;;;;;5008812;28;20498;-64
2024/01/23 11:15:13;;;;;;;7.70;3.22;;;7.90;99.90;;;;;;5013046;28;20210;-63
2024/01/23 11:17:40;;;;;;;3.72;1.70;;;8.00;99.90;;;;;;5018875;28;20681;-63
2024/01/23 11:20:09;;;;;;;6.63;2.33;;;8.10;99.90;;;;;;5015874;28;20228;-63
2024/01/23 11:22:37;;;;;;;6.55;2.45;;;8.10;99.90;;;;;;5022293;28;20207;-63
2024/01/23 11:25:04;;;;;;;8.50;2.60;;;8.10;99.90;;;;;;5016718;28;20212;-63
2024/01/23 11:27:33;;;;;;;5.50;2.53;;;8.00;99.90;;;;;;5016333;28;20215;-63
2024/01/23 11:30:00;;;;;;;8.70;3.28;;;7.90;99.90;;;;;;5021368;28;20306;-63
2024/01/23 11:32:29;;;;;;;10.85;3.75;;;7.90;99.90;;;;;;5014439;28;20206;-63
2024/01/23 11:35:02;;;;;;;5.43;3.50;;;8.00;99.90;;;;;;5022766;28;20273;-63
2024/01/23 11:37:39;;;;;;;6.90;2.60;;;8.10;99.90;;;;;;5016607;28;20231;-63
2024/01/23 11:40:09;;;;;;;6.93;2.75;;;8.10;99.90;;;;;;5016143;28;20625;-63
2024/01/23 11:42:37;;;;;;;5.00;2.47;;;8.20;99.90;;;;;;5021287;28;20741;-63
2024/01/23 11:45:22;;;;;;;4.82;2.63;;;8.30;99.90;;;;;;5019005;28;20554;-63
2024/01/23 11:47:55;;;;;;;5.88;2.42;;;8.40;99.90;;;;;;5013998;28;20294;-63
2024/01/23 11:50:23;;;;;;;5.00;2.73;;;8.40;99.90;;;;;;5024585;28;20216;-63
2024/01/23 11:52:52;;;;;;;5.20;4.10;;;8.40;99.90;;;;;;5016669;28;20475;-63
2024/01/23 11:55:20;;;;;;;14.77;3.30;;;8.50;99.90;;;;;;5013458;28;20454;-63
2024/01/23 11:57:49;;;;;;;6.28;2.80;;;8.50;99.90;;;;;;5021418;28;20822;-63
2024/01/23 12:00:17;;;;;;;8.35;2.25;;;8.50;99.90;;;;;;5015773;28;20212;-63
2024/01/23 12:02:44;;;;;;;5.32;3.08;;;8.50;99.90;;;;;;5018174;28;20210;-63
2024/01/23 12:05:12;;;;;;;4.07;1.90;;;8.50;99.90;;;;;;5016151;28;20733;-64
2024/01/23 12:07:40;;;;;;;4.80;2.73;;;8.50;99.90;;;;;;5011425;28;20474;-63
2024/01/23 12:10:08;;;;;;;6.65;5.72;;;8.60;99.90;;;;;;5015432;28;20581;-63
2024/01/23 12:12:35;;;;;;;3.45;2.30;;;8.60;99.90;;;;;;5018147;28;20291;-63
2024/01/23 12:15:04;;;;;;;3.10;1.97;;;8.70;99.90;;;;;;5016383;28;20231;-63
2024/01/23 12:17:31;;;;;;;5.27;2.03;;;8.80;99.90;;;;;;5019232;28;20450;-63
2024/01/23 12:19:58;;;;;;;6.37;2.77;;;8.90;99.90;;;;;;5017857;28;20557;-64
2024/01/23 12:22:26;;;;;;;7.77;3.80;;;9.10;99.90;;;;;;5020630;28;20561;-64
2024/01/23 12:24:53;;;;;;;5.70;2.60;;;9.10;99.90;;;;;;5019817;28;20449;-63
2024/01/23 12:27:20;;;;;;;5.30;2.57;;;9.20;99.90;;;;;;5019573;28;20839;-63
2024/01/23 12:29:47;;;;;;;10.43;3.50;;;9.40;99.90;;;;;;5015546;28;20470;-63
2024/01/23 12:32:14;;;;;;;6.93;3.33;;;9.60;99.90;;;;;;5014615;28;20450;-63
2024/01/23 12:34:42;;;;;;;6.90;2.10;;;9.80;99.90;;;;;;5013032;28;20578;-63
2024/01/23 12:37:09;;;;;;;6.50;3.37;;;10.00;99.90;;;;;;5016358;28;20977;-63
2024/01/23 12:39:37;;;;;;;2.53;2.30;;;10.30;99.90;;;;;;5020193;28;20466;-63
2024/01/23 12:42:04;;;;;;;4.73;2.70;;;10.60;99.90;;;;;;5017493;28;20447;-63
2024/01/23 12:44:31;;;;;;;2.63;2.40;;;10.90;99.90;;;;;;5015309;28;20531;-63
2024/01/23 12:46:58;;;;;;;8.50;2.20;;;11.10;99.90;;;;;;5019812;28;20821;-63
2024/01/23 12:49:25;;;;;;;4.73;2.20;;;11.50;99.90;;;;;;5016035;28;20474;-63
2024/01/23 12:51:53;;;;;;;3.67;2.47;;;11.80;99.90;;;;;;5021075;28;20818;-63
2024/01/23 12:54:20;;;;;;;4.87;3.03;;;12.10;99.90;;;;;;5018637;28;20503;-63
2024/01/23 12:56:48;;;;;;;10.60;3.27;;;12.10;99.90;;;;;;5014981;28;21021;-63